Branca De Sagres — CUOV5 — position and weather

sailwx.info

Track history (hours):
 
Tides and Currents Weather Stations Pressure Air Temp Water Temp Dewpoint Dewpoint Depression Visibility Wind Speed Wind Dir Waves Ship Positions

Branca De Sagres

Last reported at 2017-Sep-21 09:43 UTC. Time now 2017-Sep-25 09:57 UTC.
Position N 38°26' W 009°07'.

Length 18 m.

MMSI: 204209000.

Date/timePositionNaut miles runAvg speedWind from/ knotsBaromVisibWave heightAir tempDewpointWater temp
2017-Sep-21 09:43N 38°26' W 009°07'0 0.0
2017-Sep-21 08:12N 38°26' W 009°07'0 0.0
2017-Sep-21 08:00N 38°26' W 009°07'0 0.0
2017-Sep-21 07:30N 38°26' W 009°07'0 0.0
2017-Sep-21 07:00N 38°26' W 009°07'0 0.0
2017-Sep-20 09:55N 38°26' W 009°07'0 0.0
2017-Sep-19 07:22N 38°26' W 009°07'0 0.3
2017-Sep-19 06:59N 38°26' W 009°07'1 2.0
2017-Sep-19 06:30N 38°26' W 009°07'4 8.5
2017-Sep-19 05:59N 38°22' W 009°11'4 8.6
2017-Sep-19 05:30N 38°19' W 009°15'4 8.6
2017-Sep-19 05:01N 38°16' W 009°19'4 7.8
2017-Sep-19 04:30N 38°13' W 009°22'2 4.8
2017-Sep-19 04:00N 38°12' W 009°24'2 4.1
2017-Sep-19 03:27N 38°12' W 009°27'2 4.4
2017-Sep-19 02:59N 38°12' W 009°24'2 4.1
2017-Sep-19 02:30N 38°13' W 009°22'3 5.8
2017-Sep-19 01:56N 38°11' W 009°25'3 6.3
2017-Sep-19 01:30N 38°08' W 009°27'2 0.7
2017-Sep-18 22:59N 38°10' W 009°26'0 0.7
2017-Sep-18 22:27N 38°10' W 009°25'0 0.1
2017-Sep-18 21:59N 38°10' W 009°25'0 0.8
2017-Sep-18 21:30N 38°11' W 009°25'0 0.8
2017-Sep-18 20:55N 38°11' W 009°25'0 0.7
2017-Sep-18 20:30N 38°11' W 009°25'0 0.7
2017-Sep-18 20:00N 38°11' W 009°24'0 0.7
2017-Sep-18 19:30N 38°11' W 009°24'0 0.8
2017-Sep-18 19:00N 38°12' W 009°23'0 0.9
2017-Sep-18 18:30N 38°12' W 009°23'0 0.8
2017-Sep-18 18:00N 38°12' W 009°23'0 0.8
2017-Sep-18 17:30N 38°13' W 009°22'0 0.7
2017-Sep-18 17:01N 38°13' W 009°22'0 0.5
2017-Sep-18 16:30N 38°13' W 009°22'0 0.3
2017-Sep-18 16:00N 38°13' W 009°21'3 7.0
2017-Sep-18 15:30N 38°16' W 009°19'4 8.8
2017-Sep-18 15:00N 38°19' W 009°15'4 9.0
2017-Sep-18 14:30N 38°22' W 009°11'4 8.9
2017-Sep-18 14:00N 38°25' W 009°07'1 1.7
2017-Sep-18 13:30N 38°26' W 009°07'0 0.0
2017-Sep-17 03:09N 38°26' W 009°07'0 0.0
2017-Sep-17 03:00N 38°26' W 009°07'0 0.0
2017-Sep-17 02:30N 38°26' W 009°07'0 0.2
2017-Sep-17 01:47N 38°26' W 009°07'7 7.4
2017-Sep-17 00:53N 38°22' W 009°13'4 7.5
2017-Sep-17 00:25N 38°19' W 009°16'3 7.6
2017-Sep-17 00:00N 38°17' W 009°18'4 7.4
2017-Sep-16 23:29N 38°14' W 009°22'4 4.3
2017-Sep-16 22:34N 38°12' W 009°26'4 2.4
2017-Sep-16 21:06N 38°09' W 009°27'0 0.5
2017-Sep-16 20:58N 38°09' W 009°27'1 0.7
2017-Sep-16 19:47N 38°09' W 009°26'0 0.8
2017-Sep-16 19:29N 38°10' W 009°26'0 0.9
2017-Sep-16 19:00N 38°10' W 009°26'0 0.9
2017-Sep-16 18:30N 38°10' W 009°26'0 0.7
2017-Sep-16 18:00N 38°11' W 009°25'0 0.4
2017-Sep-16 17:30N 38°11' W 009°25'0 0.7
2017-Sep-16 17:00N 38°11' W 009°25'0 0.7
2017-Sep-16 16:30N 38°11' W 009°25'0 0.7
2017-Sep-16 16:00N 38°12' W 009°25'0 0.6
2017-Sep-16 15:30N 38°12' W 009°24'0 0.7
2017-Sep-16 15:00N 38°12' W 009°24'0 0.5
2017-Sep-16 14:30N 38°12' W 009°24'0 0.7
2017-Sep-16 14:00N 38°12' W 009°23'0 0.8
2017-Sep-16 13:28N 38°12' W 009°23'0 0.8
2017-Sep-16 13:00N 38°13' W 009°22'0 0.8
2017-Sep-16 12:30N 38°13' W 009°22'0 0.7
2017-Sep-16 12:00N 38°13' W 009°22'2 1.2
2017-Sep-16 10:31N 38°14' W 009°20'0 8.0
2017-Sep-16 10:29N 38°15' W 009°20'5 8.0
2017-Sep-16 09:53N 38°18' W 009°16'3 8.1
2017-Sep-16 09:30N 38°20' W 009°13'7 7.9
2017-Sep-16 08:37N 38°26' W 009°07'1 7.7
2017-Sep-16 08:30N 38°26' W 009°06'0 0.0
2017-Sep-14 11:20N 38°26' W 009°07'0 0.0
2017-Sep-14 10:46N 38°26' W 009°07'0 0.0
2017-Sep-13 14:56N 38°26' W 009°07'0 0.3
2017-Sep-13 14:30N 38°26' W 009°07'1 1.4
2017-Sep-13 14:00N 38°26' W 009°07'4 8.6
2017-Sep-13 13:31N 38°23' W 009°11'4 8.6
2017-Sep-13 13:00N 38°19' W 009°14'4 8.2
2017-Sep-13 12:30N 38°16' W 009°18'4 7.9
2017-Sep-13 12:01N 38°14' W 009°22'3 4.7
2017-Sep-13 11:20N 38°12' W 009°25'4 3.5
2017-Sep-13 10:10N 38°09' W 009°28'1 2.8
2017-Sep-13 09:58N 38°09' W 009°27'1 2.8
2017-Sep-13 09:26N 38°10' W 009°26'0 0.5
2017-Sep-13 08:49N 38°10' W 009°26'0 0.6
2017-Sep-13 08:03N 38°10' W 009°26'0 0.7
2017-Sep-13 07:53N 38°10' W 009°26'0 0.7
2017-Sep-13 07:23N 38°11' W 009°26'0 0.7
2017-Sep-13 07:01N 38°11' W 009°26'0 0.6
2017-Sep-13 06:29N 38°11' W 009°25'0 0.7
2017-Sep-13 05:58N 38°11' W 009°25'0 0.6
2017-Sep-13 05:31N 38°12' W 009°25'0 0.6
2017-Sep-13 05:00N 38°12' W 009°24'0 0.6
2017-Sep-13 04:30N 38°12' W 009°24'0 0.7
2017-Sep-13 03:56N 38°12' W 009°24'1 0.8
2017-Sep-13 02:21N 38°12' W 009°22'0 0.7
2017-Sep-13 01:42N 38°13' W 009°22'0 0.5
2017-Sep-13 01:29N 38°13' W 009°22'0 0.3
2017-Sep-13 00:58N 38°13' W 009°21'3 5.2
2017-Sep-13 00:27N 38°15' W 009°20'4 8.5
2017-Sep-12 23:57N 38°18' W 009°16'4 8.5
2017-Sep-12 23:28N 38°21' W 009°12'5 9.0
2017-Sep-12 22:54N 38°25' W 009°08'1 1.5
2017-Sep-12 21:55N 38°26' W 009°07'  
Track history (hours):
 
Tides and Currents Weather Stations Pressure Air Temp Water Temp Dewpoint Dewpoint Depression Visibility Wind Speed Wind Dir Waves Ship Positions

Branca De Sagres

Last reported at 2017-Sep-21 09:43 UTC. Time now 2017-Sep-25 09:57 UTC.
Position N 38°26' W 009°07'.

Length 18 m.

MMSI: 204209000.

Date/timePositionNaut miles runAvg speedWind from/ knotsBaromVisibWave heightAir tempDewpointWater temp
2017-Sep-21 09:43N 38°26' W 009°07'0 0.0
2017-Sep-21 08:12N 38°26' W 009°07'0 0.0
2017-Sep-21 08:00N 38°26' W 009°07'0 0.0
2017-Sep-21 07:30N 38°26' W 009°07'0 0.0
2017-Sep-21 07:00N 38°26' W 009°07'0 0.0
2017-Sep-20 09:55N 38°26' W 009°07'0 0.0
2017-Sep-19 07:22N 38°26' W 009°07'0 0.3
2017-Sep-19 06:59N 38°26' W 009°07'1 2.0
2017-Sep-19 06:30N 38°26' W 009°07'4 8.5
2017-Sep-19 05:59N 38°22' W 009°11'4 8.6
2017-Sep-19 05:30N 38°19' W 009°15'4 8.6
2017-Sep-19 05:01N 38°16' W 009°19'4 7.8
2017-Sep-19 04:30N 38°13' W 009°22'2 4.8
2017-Sep-19 04:00N 38°12' W 009°24'2 4.1
2017-Sep-19 03:27N 38°12' W 009°27'2 4.4
2017-Sep-19 02:59N 38°12' W 009°24'2 4.1
2017-Sep-19 02:30N 38°13' W 009°22'3 5.8
2017-Sep-19 01:56N 38°11' W 009°25'3 6.3
2017-Sep-19 01:30N 38°08' W 009°27'2 0.7
2017-Sep-18 22:59N 38°10' W 009°26'0 0.7
2017-Sep-18 22:27N 38°10' W 009°25'0 0.1
2017-Sep-18 21:59N 38°10' W 009°25'0 0.8
2017-Sep-18 21:30N 38°11' W 009°25'0 0.8
2017-Sep-18 20:55N 38°11' W 009°25'0 0.7
2017-Sep-18 20:30N 38°11' W 009°25'0 0.7
2017-Sep-18 20:00N 38°11' W 009°24'0 0.7
2017-Sep-18 19:30N 38°11' W 009°24'0 0.8
2017-Sep-18 19:00N 38°12' W 009°23'0 0.9
2017-Sep-18 18:30N 38°12' W 009°23'0 0.8
2017-Sep-18 18:00N 38°12' W 009°23'0 0.8
2017-Sep-18 17:30N 38°13' W 009°22'0 0.7
2017-Sep-18 17:01N 38°13' W 009°22'0 0.5
2017-Sep-18 16:30N 38°13' W 009°22'0 0.3
2017-Sep-18 16:00N 38°13' W 009°21'3 7.0
2017-Sep-18 15:30N 38°16' W 009°19'4 8.8
2017-Sep-18 15:00N 38°19' W 009°15'4 9.0
2017-Sep-18 14:30N 38°22' W 009°11'4 8.9
2017-Sep-18 14:00N 38°25' W 009°07'1 1.7
2017-Sep-18 13:30N 38°26' W 009°07'0 0.0
2017-Sep-17 03:09N 38°26' W 009°07'0 0.0
2017-Sep-17 03:00N 38°26' W 009°07'0 0.0
2017-Sep-17 02:30N 38°26' W 009°07'0 0.2
2017-Sep-17 01:47N 38°26' W 009°07'7 7.4
2017-Sep-17 00:53N 38°22' W 009°13'4 7.5
2017-Sep-17 00:25N 38°19' W 009°16'3 7.6
2017-Sep-17 00:00N 38°17' W 009°18'4 7.4
2017-Sep-16 23:29N 38°14' W 009°22'4 4.3
2017-Sep-16 22:34N 38°12' W 009°26'4 2.4
2017-Sep-16 21:06N 38°09' W 009°27'0 0.5
2017-Sep-16 20:58N 38°09' W 009°27'1 0.7
2017-Sep-16 19:47N 38°09' W 009°26'0 0.8
2017-Sep-16 19:29N 38°10' W 009°26'0 0.9
2017-Sep-16 19:00N 38°10' W 009°26'0 0.9
2017-Sep-16 18:30N 38°10' W 009°26'0 0.7
2017-Sep-16 18:00N 38°11' W 009°25'0 0.4
2017-Sep-16 17:30N 38°11' W 009°25'0 0.7
2017-Sep-16 17:00N 38°11' W 009°25'0 0.7
2017-Sep-16 16:30N 38°11' W 009°25'0 0.7
2017-Sep-16 16:00N 38°12' W 009°25'0 0.6
2017-Sep-16 15:30N 38°12' W 009°24'0 0.7
2017-Sep-16 15:00N 38°12' W 009°24'0 0.5
2017-Sep-16 14:30N 38°12' W 009°24'0 0.7
2017-Sep-16 14:00N 38°12' W 009°23'0 0.8
2017-Sep-16 13:28N 38°12' W 009°23'0 0.8
2017-Sep-16 13:00N 38°13' W 009°22'0 0.8
2017-Sep-16 12:30N 38°13' W 009°22'0 0.7
2017-Sep-16 12:00N 38°13' W 009°22'2 1.2
2017-Sep-16 10:31N 38°14' W 009°20'0 8.0
2017-Sep-16 10:29N 38°15' W 009°20'5 8.0
2017-Sep-16 09:53N 38°18' W 009°16'3 8.1
2017-Sep-16 09:30N 38°20' W 009°13'7 7.9
2017-Sep-16 08:37N 38°26' W 009°07'1 7.7
2017-Sep-16 08:30N 38°26' W 009°06'0 0.0
2017-Sep-14 11:20N 38°26' W 009°07'0 0.0
2017-Sep-14 10:46N 38°26' W 009°07'0 0.0
2017-Sep-13 14:56N 38°26' W 009°07'0 0.3
2017-Sep-13 14:30N 38°26' W 009°07'1 1.4
2017-Sep-13 14:00N 38°26' W 009°07'4 8.6
2017-Sep-13 13:31N 38°23' W 009°11'4 8.6
2017-Sep-13 13:00N 38°19' W 009°14'4 8.2
2017-Sep-13 12:30N 38°16' W 009°18'4 7.9
2017-Sep-13 12:01N 38°14' W 009°22'3 4.7
2017-Sep-13 11:20N 38°12' W 009°25'4 3.5
2017-Sep-13 10:10N 38°09' W 009°28'1 2.8
2017-Sep-13 09:58N 38°09' W 009°27'1 2.8
2017-Sep-13 09:26N 38°10' W 009°26'0 0.5
2017-Sep-13 08:49N 38°10' W 009°26'0 0.6
2017-Sep-13 08:03N 38°10' W 009°26'0 0.7
2017-Sep-13 07:53N 38°10' W 009°26'0 0.7
2017-Sep-13 07:23N 38°11' W 009°26'0 0.7
2017-Sep-13 07:01N 38°11' W 009°26'0 0.6
2017-Sep-13 06:29N 38°11' W 009°25'0 0.7
2017-Sep-13 05:58N 38°11' W 009°25'0 0.6
2017-Sep-13 05:31N 38°12' W 009°25'0 0.6
2017-Sep-13 05:00N 38°12' W 009°24'0 0.6
2017-Sep-13 04:30N 38°12' W 009°24'0 0.7
2017-Sep-13 03:56N 38°12' W 009°24'1 0.8
2017-Sep-13 02:21N 38°12' W 009°22'0 0.7
2017-Sep-13 01:42N 38°13' W 009°22'0 0.5
2017-Sep-13 01:29N 38°13' W 009°22'0 0.3
2017-Sep-13 00:58N 38°13' W 009°21'3 5.2
2017-Sep-13 00:27N 38°15' W 009°20'4 8.5
2017-Sep-12 23:57N 38°18' W 009°16'4 8.5
2017-Sep-12 23:28N 38°21' W 009°12'5 9.0
2017-Sep-12 22:54N 38°25' W 009°08'1 1.5
2017-Sep-12 21:55N 38°26' W 009°07'  

Dump ship's entire track history